sensor_id;sensor_type;location;lat;lon;timestamp;pressure;altitude;pressure_sealevel;temperature;humidity
41636;BME280;27623;51.966;4.602;2023-02-16T00:01:48;63946.00;;;7.76;93.92
41636;BME280;27623;51.966;4.602;2023-02-16T00:04:20;63892.94;;;7.65;94.71
41636;BME280;27623;51.966;4.602;2023-02-16T00:06:46;63901.44;;;7.70;94.14
41636;BME280;27623;51.966;4.602;2023-02-16T00:09:12;63954.31;;;7.79;94.41
41636;BME280;27623;51.966;4.602;2023-02-16T00:11:37;63944.19;;;7.72;94.14
41636;BME280;27623;51.966;4.602;2023-02-16T00:14:22;63906.91;;;7.61;94.36
41636;BME280;27623;51.966;4.602;2023-02-16T00:16:48;63878.84;;;7.44;95.62
41636;BME280;27623;51.966;4.602;2023-02-16T00:21:39;63880.47;;;7.53;95.71
41636;BME280;27623;51.966;4.602;2023-02-16T00:24:05;63913.97;;;7.53;95.56
41636;BME280;27623;51.966;4.602;2023-02-16T00:26:32;63916.50;;;7.61;95.25
41636;BME280;27623;51.966;4.602;2023-02-16T00:28:58;63890.25;;;7.55;95.12
41636;BME280;27623;51.966;4.602;2023-02-16T00:31:24;63907.44;;;7.62;95.32
41636;BME280;27623;51.966;4.602;2023-02-16T00:33:58;63900.72;;;7.67;95.19
41636;BME280;27623;51.966;4.602;2023-02-16T00:36:24;63883.19;;;7.55;94.55
41636;BME280;27623;51.966;4.602;2023-02-16T00:38:50;63907.28;;;7.45;95.76
41636;BME280;27623;51.966;4.602;2023-02-16T00:41:21;63903.81;;;7.68;95.53
41636;BME280;27623;51.966;4.602;2023-02-16T00:44:13;63951.78;;;7.72;95.11
41636;BME280;27623;51.966;4.602;2023-02-16T00:46:40;63896.56;;;7.58;94.62
41636;BME280;27623;51.966;4.602;2023-02-16T00:49:14;63906.19;;;7.51;95.39
41636;BME280;27623;51.966;4.602;2023-02-16T00:51:40;63910.16;;;7.50;95.19
41636;BME280;27623;51.966;4.602;2023-02-16T00:54:05;63861.31;;;7.33;95.37
41636;BME280;27623;51.966;4.602;2023-02-16T00:56:31;63877.78;;;7.36;96.02
41636;BME280;27623;51.966;4.602;2023-02-16T00:58:59;63907.06;;;7.64;94.85
41636;BME280;27623;51.966;4.602;2023-02-16T01:01:29;63921.75;;;7.56;94.89
41636;BME280;27623;51.966;4.602;2023-02-16T01:03:57;63897.69;;;7.31;95.72
41636;BME280;27623;51.966;4.602;2023-02-16T01:06:24;63896.59;;;7.44;95.37
41636;BME280;27623;51.966;4.602;2023-02-16T01:09:16;63921.94;;;7.58;94.13
41636;BME280;27623;51.966;4.602;2023-02-16T01:12:02;63866.91;;;7.40;94.87
41636;BME280;27623;51.966;4.602;2023-02-16T01:14:30;63911.41;;;7.68;94.63
41636;BME280;27623;51.966;4.602;2023-02-16T01:16:56;63906.50;;;7.77;94.62
41636;BME280;27623;51.966;4.602;2023-02-16T01:19:21;63926.78;;;7.70;93.95
41636;BME280;27623;51.966;4.602;2023-02-16T01:21:47;63910.88;;;7.67;93.61
41636;BME280;27623;51.966;4.602;2023-02-16T01:24:12;63885.16;;;7.55;94.35
41636;BME280;27623;51.966;4.602;2023-02-16T01:26:41;63902.38;;;7.54;94.24
41636;BME280;27623;51.966;4.602;2023-02-16T01:29:13;63938.03;;;7.64;93.69
41636;BME280;27623;51.966;4.602;2023-02-16T01:31:39;63926.63;;;7.61;93.71
41636;BME280;27623;51.966;4.602;2023-02-16T01:34:05;63914.13;;;7.70;93.26
41636;BME280;27623;51.966;4.602;2023-02-16T01:36:33;63912.66;;;7.78;92.43
41636;BME280;27623;51.966;4.602;2023-02-16T01:38:59;63895.66;;;7.60;92.27
41636;BME280;27623;51.966;4.602;2023-02-16T01:41:58;63899.47;;;7.56;92.59
41636;BME280;27623;51.966;4.602;2023-02-16T01:47:18;63940.19;;;7.80;92.21
41636;BME280;27623;51.966;4.602;2023-02-16T01:49:50;63910.34;;;7.59;91.67
41636;BME280;27623;51.966;4.602;2023-02-16T01:52:27;63913.41;;;7.60;92.18
41636;BME280;27623;51.966;4.602;2023-02-16T01:55:01;63938.75;;;7.74;92.57
41636;BME280;27623;51.966;4.602;2023-02-16T01:57:38;63929.50;;;7.80;91.85
41636;BME280;27623;51.966;4.602;2023-02-16T02:01:05;63914.31;;;7.66;91.58
41636;BME280;27623;51.966;4.602;2023-02-16T02:03:30;63911.25;;;7.58;92.18
41636;BME280;27623;51.966;4.602;2023-02-16T02:06:22;63887.16;;;7.69;91.83
41636;BME280;27623;51.966;4.602;2023-02-16T02:11:45;63942.56;;;7.71;91.68
41636;BME280;27623;51.966;4.602;2023-02-16T02:14:17;63948.34;;;7.74;91.06
41636;BME280;27623;51.966;4.602;2023-02-16T02:16:53;63957.22;;;7.84;90.80
41636;BME280;27623;51.966;4.602;2023-02-16T02:19:22;63969.53;;;7.86;90.96
41636;BME280;27623;51.966;4.602;2023-02-16T02:22:25;63909.75;;;7.73;89.72
41636;BME280;27623;51.966;4.602;2023-02-16T02:36:43;63919.00;;;7.75;89.04
41636;BME280;27623;51.966;4.602;2023-02-16T02:43:06;63963.91;;;8.00;88.02
41636;BME280;27623;51.966;4.602;2023-02-16T02:45:12;63943.41;;;8.05;87.63
41636;BME280;27623;51.966;4.602;2023-02-16T02:47:42;63949.41;;;8.03;87.30
41636;BME280;27623;51.966;4.602;2023-02-16T02:52:51;63931.66;;;7.96;87.07
41636;BME280;27623;51.966;4.602;2023-02-16T02:55:16;63963.19;;;7.90;87.05
41636;BME280;27623;51.966;4.602;2023-02-16T02:58:02;63961.56;;;7.88;87.21
41636;BME280;27623;51.966;4.602;2023-02-16T03:00:47;63933.28;;;7.98;87.33
41636;BME280;27623;51.966;4.602;2023-02-16T03:03:19;63937.66;;;7.87;87.03
41636;BME280;27623;51.966;4.602;2023-02-16T03:05:50;63926.97;;;7.87;87.58
41636;BME280;27623;51.966;4.602;2023-02-16T03:08:23;63939.81;;;7.89;86.70
41636;BME280;27623;51.966;4.602;2023-02-16T03:11:05;63924.03;;;7.96;87.14
41636;BME280;27623;51.966;4.602;2023-02-16T03:13:55;63939.97;;;7.99;87.12
41636;BME280;27623;51.966;4.602;2023-02-16T03:16:26;63965.13;;;8.11;86.90
41636;BME280;27623;51.966;4.602;2023-02-16T03:18:55;63949.03;;;8.05;86.98
41636;BME280;27623;51.966;4.602;2023-02-16T03:21:40;63954.13;;;7.98;86.63
41636;BME280;27623;51.966;4.602;2023-02-16T03:24:27;63992.50;;;8.17;87.16
41636;BME280;27623;51.966;4.602;2023-02-16T03:27:20;63945.06;;;8.06;86.80
41636;BME280;27623;51.966;4.602;2023-02-16T03:30:06;63941.06;;;7.93;87.77
41636;BME280;27623;51.966;4.602;2023-02-16T03:32:32;63932.38;;;7.92;87.54
41636;BME280;27623;51.966;4.602;2023-02-16T03:34:58;63965.53;;;7.94;88.08
41636;BME280;27623;51.966;4.602;2023-02-16T03:37:24;63938.34;;;7.90;88.10
41636;BME280;27623;51.966;4.602;2023-02-16T03:39:49;63976.03;;;8.07;88.76
41636;BME280;27623;51.966;4.602;2023-02-16T03:42:33;63982.91;;;8.18;88.85
41636;BME280;27623;51.966;4.602;2023-02-16T03:44:59;63969.66;;;8.17;88.00
41636;BME280;27623;51.966;4.602;2023-02-16T03:47:24;63971.88;;;8.05;87.77
41636;BME280;27623;51.966;4.602;2023-02-16T03:49:50;63929.84;;;7.99;89.07
41636;BME280;27623;51.966;4.602;2023-02-16T03:52:15;63973.31;;;7.97;88.82
41636;BME280;27623;51.966;4.602;2023-02-16T03:54:40;63951.06;;;7.76;89.72
41636;BME280;27623;51.966;4.602;2023-02-16T03:57:06;63904.13;;;7.87;89.72
41636;BME280;27623;51.966;4.602;2023-02-16T03:59:31;63956.28;;;7.93;89.52
41636;BME280;27623;51.966;4.602;2023-02-16T04:01:57;63915.38;;;7.74;90.36
41636;BME280;27623;51.966;4.602;2023-02-16T04:04:23;63914.97;;;7.90;90.63
41636;BME280;27623;51.966;4.602;2023-02-16T04:06:48;63949.03;;;8.05;89.63
41636;BME280;27623;51.966;4.602;2023-02-16T04:09:14;63955.41;;;7.87;89.88
41636;BME280;27623;51.966;4.602;2023-02-16T04:11:39;63939.25;;;7.96;90.03
41636;BME280;27623;51.966;4.602;2023-02-16T04:14:23;63951.03;;;7.98;89.19
41636;BME280;27623;51.966;4.602;2023-02-16T04:16:50;63945.22;;;8.02;89.70
41636;BME280;27623;51.966;4.602;2023-02-16T04:19:16;63922.41;;;8.02;90.58
41636;BME280;27623;51.966;4.602;2023-02-16T04:21:42;63891.28;;;7.84;90.44
41636;BME280;27623;51.966;4.602;2023-02-16T04:24:09;63941.25;;;7.96;89.92
41636;BME280;27623;51.966;4.602;2023-02-16T04:26:36;63947.19;;;8.15;90.81
41636;BME280;27623;51.966;4.602;2023-02-16T04:29:02;63975.69;;;8.09;89.25
41636;BME280;27623;51.966;4.602;2023-02-16T04:31:27;63971.50;;;8.00;89.75
41636;BME280;27623;51.966;4.602;2023-02-16T04:33:53;63938.91;;;7.91;90.60
41636;BME280;27623;51.966;4.602;2023-02-16T04:36:19;63948.34;;;7.88;91.09
41636;BME280;27623;51.966;4.602;2023-02-16T04:38:44;63947.97;;;7.83;91.07
41636;BME280;27623;51.966;4.602;2023-02-16T04:41:10;63955.78;;;7.78;91.23
41636;BME280;27623;51.966;4.602;2023-02-16T04:43:36;63968.81;;;7.76;91.60
41636;BME280;27623;51.966;4.602;2023-02-16T04:46:01;63934.22;;;7.75;91.44
41636;BME280;27623;51.966;4.602;2023-02-16T04:48:26;63909.03;;;7.77;92.01
41636;BME280;27623;51.966;4.602;2023-02-16T04:50:52;63929.91;;;7.64;92.02
41636;BME280;27623;51.966;4.602;2023-02-16T04:53:17;63905.81;;;7.67;92.80
41636;BME280;27623;51.966;4.602;2023-02-16T04:55:48;63932.78;;;7.62;92.91
41636;BME280;27623;51.966;4.602;2023-02-16T04:58:15;63930.97;;;7.72;93.76
41636;BME280;27623;51.966;4.602;2023-02-16T05:00:41;63939.28;;;7.75;92.84
41636;BME280;27623;51.966;4.602;2023-02-16T05:03:07;63913.03;;;7.76;92.70
41636;BME280;27623;51.966;4.602;2023-02-16T05:05:32;63944.38;;;7.61;93.68
41636;BME280;27623;51.966;4.602;2023-02-16T05:08:00;63896.03;;;7.58;93.45
41636;BME280;27623;51.966;4.602;2023-02-16T05:10:25;63922.84;;;7.64;94.40
41636;BME280;27623;51.966;4.602;2023-02-16T05:12:51;63949.06;;;7.70;93.93
41636;BME280;27623;51.966;4.602;2023-02-16T05:15:35;63913.06;;;7.48;94.26
41636;BME280;27623;51.966;4.602;2023-02-16T05:18:00;63923.00;;;7.59;94.89
41636;BME280;27623;51.966;4.602;2023-02-16T05:20:29;63894.78;;;7.47;94.69
41636;BME280;27623;51.966;4.602;2023-02-16T05:23:12;63908.53;;;7.63;95.10
41636;BME280;27623;51.966;4.602;2023-02-16T05:25:38;63918.66;;;7.63;93.74
41636;BME280;27623;51.966;4.602;2023-02-16T05:28:04;63926.78;;;7.70;94.78
41636;BME280;27623;51.966;4.602;2023-02-16T05:30:32;63968.44;;;7.85;94.78
41636;BME280;27623;51.966;4.602;2023-02-16T05:32:57;63895.81;;;7.77;93.69
41636;BME280;27623;51.966;4.602;2023-02-16T05:35:24;63934.75;;;7.75;94.20
41636;BME280;27623;51.966;4.602;2023-02-16T05:37:50;63936.75;;;7.82;94.56
41636;BME280;27623;51.966;4.602;2023-02-16T05:40:15;63947.25;;;7.87;94.38
41636;BME280;27623;51.966;4.602;2023-02-16T05:42:41;63922.97;;;7.88;93.96
41636;BME280;27623;51.966;4.602;2023-02-16T05:45:06;63920.63;;;7.76;93.64
41636;BME280;27623;51.966;4.602;2023-02-16T05:47:32;63936.75;;;7.75;94.55
41636;BME280;27623;51.966;4.602;2023-02-16T05:49:57;63945.28;;;7.73;94.66
41636;BME280;27623;51.966;4.602;2023-02-16T05:52:25;63952.69;;;7.78;94.77
41636;BME280;27623;51.966;4.602;2023-02-16T05:54:50;63952.66;;;7.92;95.04
41636;BME280;27623;51.966;4.602;2023-02-16T05:57:16;63941.28;;;7.88;94.01
41636;BME280;27623;51.966;4.602;2023-02-16T05:59:41;63932.22;;;7.82;93.46
41636;BME280;27623;51.966;4.602;2023-02-16T06:02:06;63920.09;;;7.76;94.46
41636;BME280;27623;51.966;4.602;2023-02-16T06:04:34;63951.25;;;7.57;95.03
41636;BME280;27623;51.966;4.602;2023-02-16T06:07:00;63886.06;;;7.61;95.94
41636;BME280;27623;51.966;4.602;2023-02-16T06:09:25;63930.97;;;7.65;95.25
41636;BME280;27623;51.966;4.602;2023-02-16T06:11:55;63947.63;;;7.71;95.37
41636;BME280;27623;51.966;4.602;2023-02-16T06:14:20;63930.78;;;7.83;94.78
41636;BME280;27623;51.966;4.602;2023-02-16T06:16:48;63925.69;;;7.83;94.41
41636;BME280;27623;51.966;4.602;2023-02-16T06:19:14;63965.19;;;7.82;94.71
41636;BME280;27623;51.966;4.602;2023-02-16T06:21:41;63910.66;;;7.79;94.65
41636;BME280;27623;51.966;4.602;2023-02-16T06:24:08;63949.44;;;7.75;95.11
41636;BME280;27623;51.966;4.602;2023-02-16T06:26:35;63942.19;;;7.73;95.83
41636;BME280;27623;51.966;4.602;2023-02-16T06:29:00;63923.38;;;7.65;96.11
41636;BME280;27623;51.966;4.602;2023-02-16T06:31:26;63947.25;;;7.80;96.92
41636;BME280;27623;51.966;4.602;2023-02-16T06:33:52;63923.53;;;7.81;96.18
41636;BME280;27623;51.966;4.602;2023-02-16T06:36:19;63943.09;;;7.85;96.20
41636;BME280;27623;51.966;4.602;2023-02-16T06:38:44;63948.50;;;7.90;95.50
41636;BME280;27623;51.966;4.602;2023-02-16T06:41:10;63967.53;;;7.94;95.32
41636;BME280;27623;51.966;4.602;2023-02-16T06:43:36;63943.44;;;7.90;95.16
41636;BME280;27623;51.966;4.602;2023-02-16T06:46:02;63968.63;;;7.88;95.75
41636;BME280;27623;51.966;4.602;2023-02-16T06:48:27;63952.69;;;7.78;96.14
41636;BME280;27623;51.966;4.602;2023-02-16T06:50:53;63935.81;;;7.90;96.58
41636;BME280;27623;51.966;4.602;2023-02-16T06:53:18;63949.59;;;7.99;95.71
41636;BME280;27623;51.966;4.602;2023-02-16T06:55:45;63964.63;;;8.03;95.56
41636;BME280;27623;51.966;4.602;2023-02-16T06:58:10;63956.28;;;8.00;95.38
41636;BME280;27623;51.966;4.602;2023-02-16T07:00:36;63991.22;;;8.21;95.21
41636;BME280;27623;51.966;4.602;2023-02-16T07:03:01;63984.00;;;8.05;95.22
41636;BME280;27623;51.966;4.602;2023-02-16T07:05:26;63967.34;;;7.99;95.04
41636;BME280;27623;51.966;4.602;2023-02-16T07:07:52;63948.31;;;8.02;94.93
41636;BME280;27623;51.966;4.602;2023-02-16T07:10:18;63984.19;;;8.07;95.54
41636;BME280;27623;51.966;4.602;2023-02-16T07:12:44;63961.53;;;7.96;95.75
41636;BME280;27623;51.966;4.602;2023-02-16T07:15:10;63956.28;;;8.00;95.34
41636;BME280;27623;51.966;4.602;2023-02-16T07:17:36;63960.25;;;8.13;95.41
41636;BME280;27623;51.966;4.602;2023-02-16T07:20:02;63978.03;;;8.06;95.18
41636;BME280;27623;51.966;4.602;2023-02-16T07:22:28;63968.97;;;8.00;96.05
41636;BME280;27623;51.966;4.602;2023-02-16T07:24:54;63947.78;;;7.94;95.26
41636;BME280;27623;51.966;4.602;2023-02-16T07:27:21;63954.31;;;7.86;95.80
41636;BME280;27623;51.966;4.602;2023-02-16T07:29:47;63894.56;;;7.73;97.07
41636;BME280;27623;51.966;4.602;2023-02-16T07:32:13;63950.88;;;7.88;96.63
41636;BME280;27623;51.966;4.602;2023-02-16T07:34:40;63992.00;;;8.03;96.76
41636;BME280;27623;51.966;4.602;2023-02-16T07:37:06;63925.66;;;7.90;96.36
41636;BME280;27623;51.966;4.602;2023-02-16T07:39:31;63928.75;;;7.91;96.69
41636;BME280;27623;51.966;4.602;2023-02-16T07:41:57;63964.09;;;7.96;96.60
41636;BME280;27623;51.966;4.602;2023-02-16T07:44:22;63970.59;;;8.02;96.27
41636;BME280;27623;51.966;4.602;2023-02-16T07:46:47;63972.22;;;8.10;95.18
41636;BME280;27623;51.966;4.602;2023-02-16T07:49:13;63951.97;;;7.82;96.83
41636;BME280;27623;51.966;4.602;2023-02-16T07:51:38;63955.22;;;7.92;97.12
41636;BME280;27623;51.966;4.602;2023-02-16T07:54:05;63960.47;;;7.94;97.45
41636;BME280;27623;51.966;4.602;2023-02-16T07:56:32;63981.31;;;7.95;97.55
41636;BME280;27623;51.966;4.602;2023-02-16T07:58:59;63945.97;;;7.90;97.64
41636;BME280;27623;51.966;4.602;2023-02-16T08:01:24;63972.78;;;7.97;97.75
41636;BME280;27623;51.966;4.602;2023-02-16T08:03:54;63946.88;;;7.96;97.44
41636;BME280;27623;51.966;4.602;2023-02-16T08:06:20;63976.94;;;8.05;97.72
41636;BME280;27623;51.966;4.602;2023-02-16T08:08:46;63961.38;;;8.00;97.31
41636;BME280;27623;51.966;4.602;2023-02-16T08:11:14;63982.38;;;8.03;97.73
41636;BME280;27623;51.966;4.602;2023-02-16T08:13:40;63966.63;;;8.10;98.82
41636;BME280;27623;51.966;4.602;2023-02-16T08:16:10;63977.50;;;8.06;99.48
41636;BME280;27623;51.966;4.602;2023-02-16T08:18:37;63970.59;;;8.09;100.00
41636;BME280;27623;51.966;4.602;2023-02-16T08:21:07;63962.59;;;8.11;100.00
41636;BME280;27623;51.966;4.602;2023-02-16T08:23:39;63973.69;;;8.09;100.00
41636;BME280;27623;51.966;4.602;2023-02-16T08:26:07;63996.69;;;8.19;100.00
41636;BME280;27623;51.966;4.602;2023-02-16T08:28:34;63963.53;;;8.02;100.00
41636;BME280;27623;51.966;4.602;2023-02-16T08:31:03;63970.78;;;7.97;100.00
41636;BME280;27623;51.966;4.602;2023-02-16T08:33:29;63959.19;;;7.91;100.00
41636;BME280;27623;51.966;4.602;2023-02-16T08:35:54;63978.75;;;7.95;100.00
41636;BME280;27623;51.966;4.602;2023-02-16T08:38:19;63993.81;;;8.00;100.00
41636;BME280;27623;51.966;4.602;2023-02-16T08:40:50;63981.28;;;8.02;100.00
41636;BME280;27623;51.966;4.602;2023-02-16T08:43:15;63975.69;;;8.02;100.00
41636;BME280;27623;51.966;4.602;2023-02-16T08:45:47;63948.66;;;8.07;100.00
41636;BME280;27623;51.966;4.602;2023-02-16T08:48:13;63999.59;;;8.10;100.00
41636;BME280;27623;51.966;4.602;2023-02-16T08:50:45;63949.97;;;7.89;100.00
41636;BME280;27623;51.966;4.602;2023-02-16T08:53:22;63957.38;;;7.94;100.00
41636;BME280;27623;51.966;4.602;2023-02-16T08:55:54;63961.72;;;7.91;100.00
41636;BME280;27623;51.966;4.602;2023-02-16T08:58:20;63955.56;;;7.90;100.00
41636;BME280;27623;51.966;4.602;2023-02-16T09:00:46;63979.13;;;8.07;100.00
41636;BME280;27623;51.966;4.602;2023-02-16T09:03:11;63936.56;;;7.86;100.00
41636;BME280;27623;51.966;4.602;2023-02-16T09:05:37;63955.59;;;7.83;100.00
41636;BME280;27623;51.966;4.602;2023-02-16T09:08:03;63944.19;;;7.79;100.00
41636;BME280;27623;51.966;4.602;2023-02-16T09:10:28;63976.41;;;7.98;100.00
41636;BME280;27623;51.966;4.602;2023-02-16T09:12:54;63956.84;;;7.86;100.00
41636;BME280;27623;51.966;4.602;2023-02-16T09:15:20;63957.78;;;7.78;100.00
41636;BME280;27623;51.966;4.602;2023-02-16T09:17:46;63954.47;;;8.03;100.00
41636;BME280;27623;51.966;4.602;2023-02-16T09:20:12;63952.31;;;7.94;100.00
41636;BME280;27623;51.966;4.602;2023-02-16T09:22:37;63939.44;;;7.99;100.00
41636;BME280;27623;51.966;4.602;2023-02-16T09:25:04;63913.88;;;7.96;100.00
41636;BME280;27623;51.966;4.602;2023-02-16T09:27:31;63972.22;;;8.03;100.00
41636;BME280;27623;51.966;4.602;2023-02-16T09:29:59;64007.22;;;8.10;100.00
41636;BME280;27623;51.966;4.602;2023-02-16T09:32:33;63937.84;;;7.83;100.00
41636;BME280;27623;51.966;4.602;2023-02-16T09:34:58;63961.38;;;7.93;100.00
41636;BME280;27623;51.966;4.602;2023-02-16T09:37:24;63970.06;;;8.01;100.00
41636;BME280;27623;51.966;4.602;2023-02-16T09:39:50;63954.47;;;8.03;100.00
41636;BME280;27623;51.966;4.602;2023-02-16T09:45:07;63986.16;;;8.14;100.00
41636;BME280;27623;51.966;4.602;2023-02-16T09:47:39;63962.09;;;7.96;100.00
41636;BME280;27623;51.966;4.602;2023-02-16T09:50:26;63990.16;;;8.20;100.00
41636;BME280;27623;51.966;4.602;2023-02-16T09:53:00;63987.44;;;8.24;100.00
41636;BME280;27623;51.966;4.602;2023-02-16T09:55:38;63968.94;;;8.14;100.00
41636;BME280;27623;51.966;4.602;2023-02-16T09:58:23;63996.13;;;8.25;100.00
41636;BME280;27623;51.966;4.602;2023-02-16T10:00:54;63997.94;;;8.30;100.00
41636;BME280;27623;51.966;4.602;2023-02-16T10:03:45;64049.59;;;8.49;100.00
41636;BME280;27623;51.966;4.602;2023-02-16T10:06:26;64025.31;;;8.50;100.00
41636;BME280;27623;51.966;4.602;2023-02-16T10:08:56;63983.78;;;8.45;100.00
41636;BME280;27623;51.966;4.602;2023-02-16T10:11:26;64029.63;;;8.54;100.00
41636;BME280;27623;51.966;4.602;2023-02-16T10:17:21;64052.34;;;8.52;100.00
41636;BME280;27623;51.966;4.602;2023-02-16T10:23:06;64015.88;;;8.39;100.00
41636;BME280;27623;51.966;4.602;2023-02-16T10:28:48;63991.06;;;8.25;100.00
41636;BME280;27623;51.966;4.602;2023-02-16T10:31:30;63998.50;;;8.23;100.00
41636;BME280;27623;51.966;4.602;2023-02-16T10:39:37;64076.06;;;8.65;100.00
41636;BME280;27623;51.966;4.602;2023-02-16T10:42:10;64061.72;;;8.63;100.00
41636;BME280;27623;51.966;4.602;2023-02-16T10:44:46;64032.16;;;8.61;100.00
41636;BME280;27623;51.966;4.602;2023-02-16T10:47:32;64043.06;;;8.65;100.00
41636;BME280;27623;51.966;4.602;2023-02-16T10:49:59;64041.78;;;8.61;100.00
41636;BME280;27623;51.966;4.602;2023-02-16T10:52:28;64066.81;;;8.70;100.00
41636;BME280;27623;51.966;4.602;2023-02-16T10:54:55;64069.31;;;8.77;100.00
41636;BME280;27623;51.966;4.602;2023-02-16T10:57:25;64068.22;;;8.83;100.00
41636;BME280;27623;51.966;4.602;2023-02-16T10:59:52;64089.66;;;8.77;100.00
41636;BME280;27623;51.966;4.602;2023-02-16T11:04:59;64059.50;;;8.89;100.00
41636;BME280;27623;51.966;4.602;2023-02-16T11:07:29;64088.75;;;8.86;100.00
41636;BME280;27623;51.966;4.602;2023-02-16T11:09:57;64099.91;;;9.22;100.00
41636;BME280;27623;51.966;4.602;2023-02-16T11:12:31;64121.16;;;9.35;100.00
41636;BME280;27623;51.966;4.602;2023-02-16T11:15:05;64154.00;;;9.47;100.00
41636;BME280;27623;51.966;4.602;2023-02-16T11:17:49;64127.84;;;9.44;100.00
41636;BME280;27623;51.966;4.602;2023-02-16T11:21:11;64111.31;;;9.40;100.00
41636;BME280;27623;51.966;4.602;2023-02-16T11:23:33;64179.06;;;9.49;100.00
41636;BME280;27623;51.966;4.602;2023-02-16T11:28:38;64172.44;;;9.78;100.00
41636;BME280;27623;51.966;4.602;2023-02-16T11:36:40;64210.06;;;9.85;100.00
41636;BME280;27623;51.966;4.602;2023-02-16T11:41:52;64172.28;;;9.76;100.00
41636;BME280;27623;51.966;4.602;2023-02-16T11:44:37;64178.06;;;9.86;100.00
41636;BME280;27623;51.966;4.602;2023-02-16T11:47:23;64189.09;;;9.98;100.00
41636;BME280;27623;51.966;4.602;2023-02-16T11:50:56;64179.09;;;10.08;100.00
41636;BME280;27623;51.966;4.602;2023-02-16T11:53:19;64236.53;;;10.28;100.00
41636;BME280;27623;51.966;4.602;2023-02-16T11:55:48;64261.56;;;10.52;100.00
41636;BME280;27623;51.966;4.602;2023-02-16T12:12:15;64303.81;;;11.03;100.00
41636;BME280;27623;51.966;4.602;2023-02-16T12:18:00;64450.41;;;12.01;99.79
41636;BME280;27623;51.966;4.602;2023-02-16T12:37:54;64466.44;;;12.04;93.31
41636;BME280;27623;51.966;4.602;2023-02-16T12:43:24;64406.91;;;11.78;93.42
41636;BME280;27623;51.966;4.602;2023-02-16T12:45:54;64405.75;;;11.91;93.25
41636;BME280;27623;51.966;4.602;2023-02-16T12:50:55;64484.75;;;12.33;88.00
41636;BME280;27623;51.966;4.602;2023-02-16T12:53:29;64481.63;;;12.40;88.53
41636;BME280;27623;51.966;4.602;2023-02-16T12:56:06;64486.38;;;12.42;89.04
41636;BME280;27623;51.966;4.602;2023-02-16T12:58:39;64460.41;;;12.06;87.71
41636;BME280;27623;51.966;4.602;2023-02-16T13:01:12;64453.88;;;12.00;87.85
41636;BME280;27623;51.966;4.602;2023-02-16T13:03:50;64437.25;;;12.03;88.81
41636;BME280;27623;51.966;4.602;2023-02-16T13:06:25;64391.03;;;11.70;89.14
41636;BME280;27623;51.966;4.602;2023-02-16T13:09:08;64368.66;;;11.63;90.49
41636;BME280;27623;51.966;4.602;2023-02-16T13:14:31;64415.78;;;11.88;90.13
41636;BME280;27623;51.966;4.602;2023-02-16T13:17:05;64456.25;;;11.97;90.37
41636;BME280;27623;51.966;4.602;2023-02-16T13:19:34;64420.88;;;11.88;89.57
41636;BME280;27623;51.966;4.602;2023-02-16T13:22:26;64411.75;;;11.89;89.56
41636;BME280;27623;51.966;4.602;2023-02-16T13:31:05;64434.97;;;11.78;88.20
41636;BME280;27623;51.966;4.602;2023-02-16T13:34:09;64393.59;;;11.77;89.35
41636;BME280;27623;51.966;4.602;2023-02-16T13:36:44;64422.38;;;11.80;89.72
41636;BME280;27623;51.966;4.602;2023-02-16T13:44:27;64377.91;;;11.65;91.06
41636;BME280;27623;51.966;4.602;2023-02-16T13:46:58;64379.97;;;11.57;91.16
41636;BME280;27623;51.966;4.602;2023-02-16T13:49:35;64387.84;;;11.46;92.24
41636;BME280;27623;51.966;4.602;2023-02-16T13:52:08;64386.91;;;11.54;92.98
41636;BME280;27623;51.966;4.602;2023-02-16T13:57:02;64385.09;;;11.50;94.16
41636;BME280;27623;51.966;4.602;2023-02-16T14:01:54;64425.72;;;11.62;94.19
41636;BME280;27623;51.966;4.602;2023-02-16T14:07:35;64385.19;;;11.74;94.33
41636;BME280;27623;51.966;4.602;2023-02-16T14:28:01;64352.72;;;11.32;100.00
41636;BME280;27623;51.966;4.602;2023-02-16T14:35:32;64377.88;;;11.27;100.00
41636;BME280;27623;51.966;4.602;2023-02-16T14:38:04;64329.44;;;11.20;100.00
41636;BME280;27623;51.966;4.602;2023-02-16T14:43:05;64354.78;;;11.17;100.00
41636;BME280;27623;51.966;4.602;2023-02-16T14:45:43;64330.03;;;11.06;100.00
41636;BME280;27623;51.966;4.602;2023-02-16T14:48:53;64311.09;;;11.05;100.00
41636;BME280;27623;51.966;4.602;2023-02-16T14:51:41;64273.50;;;10.77;100.00
41636;BME280;27623;51.966;4.602;2023-02-16T14:54:36;64292.97;;;10.79;100.00
41636;BME280;27623;51.966;4.602;2023-02-16T14:59:58;64285.69;;;10.77;100.00
41636;BME280;27623;51.966;4.602;2023-02-16T15:05:16;64296.25;;;10.75;100.00
41636;BME280;27623;51.966;4.602;2023-02-16T15:07:44;64283.34;;;10.65;100.00
41636;BME280;27623;51.966;4.602;2023-02-16T15:10:12;64291.53;;;10.65;100.00
41636;BME280;27623;51.966;4.602;2023-02-16T15:12:39;64234.81;;;10.55;100.00
41636;BME280;27623;51.966;4.602;2023-02-16T15:15:05;64282.66;;;10.55;100.00
41636;BME280;27623;51.966;4.602;2023-02-16T15:17:45;64272.28;;;10.59;100.00
41636;BME280;27623;51.966;4.602;2023-02-16T15:20:39;64314.16;;;10.53;100.00
41636;BME280;27623;51.966;4.602;2023-02-16T15:23:32;64289.22;;;10.54;100.00
41636;BME280;27623;51.966;4.602;2023-02-16T15:26:07;64241.50;;;10.64;100.00
41636;BME280;27623;51.966;4.602;2023-02-16T15:28:54;64259.00;;;10.52;100.00
41636;BME280;27623;51.966;4.602;2023-02-16T15:31:42;64268.28;;;10.53;100.00
41636;BME280;27623;51.966;4.602;2023-02-16T15:34:13;64267.56;;;10.57;100.00
41636;BME280;27623;51.966;4.602;2023-02-16T15:36:55;64244.78;;;10.60;100.00
41636;BME280;27623;51.966;4.602;2023-02-16T15:39:25;64269.22;;;10.45;100.00
41636;BME280;27623;51.966;4.602;2023-02-16T15:41:52;64262.47;;;10.50;100.00
41636;BME280;27623;51.966;4.602;2023-02-16T15:44:29;64273.75;;;10.58;100.00
41636;BME280;27623;51.966;4.602;2023-02-16T15:47:08;64232.50;;;10.37;100.00
41636;BME280;27623;51.966;4.602;2023-02-16T15:49:35;64240.28;;;10.46;100.00
41636;BME280;27623;51.966;4.602;2023-02-16T15:52:06;64269.75;;;10.45;100.00
41636;BME280;27623;51.966;4.602;2023-02-16T15:54:34;64254.84;;;10.50;100.00
41636;BME280;27623;51.966;4.602;2023-02-16T15:57:09;64275.34;;;10.60;100.00